CRX9A EIKY-EIDL

Flight info

Callsign CRX9A
Flight time 0h 35m
Altitude 23000
Route SHA DCT CFN
Aircraft C25A/M-SDE2E3FGHRWXY/LB1

Departure

Time 2026-04-21 18:30
Airport Kerry Airport (EIKY)

Arrival

Time 2026-04-21 19:06
Airport Donegal Airport (EIDL)
Time Latitude Longitude Altitude Speed Heading
2026-04-21 18:22 52.18085 -9.53725 88 ft 0 kts 110°
2026-04-21 18:27 52.18085 -9.53724 86 ft 0 kts 110°
2026-04-21 18:28 52.18068 -9.53696 88 ft 8 kts 143°
2026-04-21 18:28 52.18019 -9.53642 87 ft 8 kts 149°
2026-04-21 18:28 52.17965 -9.53605 86 ft 9 kts 161°
2026-04-21 18:28 52.17898 -9.53568 86 ft 12 kts 161°
2026-04-21 18:29 52.17834 -9.53603 87 ft 12 kts 238°
2026-04-21 18:29 52.17788 -9.53706 88 ft 8 kts 253°
2026-04-21 18:29 52.17808 -9.53719 90 ft 6 kts 59°
2026-04-21 18:29 52.17855 -9.53501 87 ft 52 kts 71°
2026-04-21 18:30 52.18089 -9.52377 252 ft 148 kts 73°
2026-04-21 18:30 52.18485 -9.50452 1134 ft 203 kts 73°
2026-04-21 18:30 52.18931 -9.48316 1891 ft 202 kts 75°
2026-04-21 18:30 52.19406 -9.46005 2518 ft 219 kts 74°
2026-04-21 18:31 52.19899 -9.43659 3676 ft 220 kts 75°
2026-04-21 18:31 52.20405 -9.41123 4028 ft 254 kts 75°
2026-04-21 18:31 52.20966 -9.38526 5432 ft 235 kts 76°
2026-04-21 18:31 52.21682 -9.36030 6051 ft 259 kts 55°
2026-04-21 18:32 52.23131 -9.34158 6861 ft 270 kts 38°
2026-04-21 18:32 52.24739 -9.32518 7634 ft 276 kts 35°
2026-04-21 18:32 52.26452 -9.31039 8493 ft 279 kts 32°
2026-04-21 18:32 52.28146 -9.29551 9454 ft 277 kts 35°
2026-04-21 18:33 52.29824 -9.27958 10249 ft 281 kts 35°
2026-04-21 18:33 52.31544 -9.26368 10951 ft 287 kts 34°
2026-04-21 18:33 52.33298 -9.24752 11631 ft 292 kts 35°
2026-04-21 18:33 52.35086 -9.23092 12294 ft 298 kts 33°
2026-04-21 18:34 52.36909 -9.21418 12959 ft 303 kts 34°
2026-04-21 18:34 52.38759 -9.19693 13601 ft 309 kts 34°
2026-04-21 18:34 52.40640 -9.17951 14252 ft 313 kts 34°
2026-04-21 18:34 52.42518 -9.16217 14899 ft 315 kts 34°
2026-04-21 18:35 52.43807 -9.15014 15309 ft 317 kts 33°
2026-04-21 18:35 52.46377 -9.12625 16033 ft 325 kts 33°
2026-04-21 18:35 52.48360 -9.10775 16554 ft 331 kts 32°
2026-04-21 18:35 52.50365 -9.08910 17175 ft 333 kts 31°
2026-04-21 18:36 52.52407 -9.07005 17585 ft 342 kts 31°
2026-04-21 18:36 52.54476 -9.05071 18225 ft 342 kts 30°
2026-04-21 18:36 52.56566 -9.03120 18635 ft 350 kts 29°
2026-04-21 18:36 52.58689 -9.01128 19165 ft 350 kts 29°
2026-04-21 18:37 52.60803 -8.99154 19699 ft 352 kts 28°
2026-04-21 18:37 52.62938 -8.97144 20174 ft 355 kts 28°
2026-04-21 18:37 52.65083 -8.95136 20720 ft 356 kts 28°
2026-04-21 18:37 52.67247 -8.93094 21162 ft 360 kts 28°
2026-04-21 18:38 52.69422 -8.91053 21717 ft 360 kts 27°
2026-04-21 18:38 52.71654 -8.89149 22119 ft 363 kts 18°
2026-04-21 18:38 52.74111 -8.88081 22390 ft 368 kts
2026-04-21 18:38 52.76663 -8.87500 22666 ft 374 kts
2026-04-21 18:39 52.79264 -8.86931 22944 ft 380 kts
2026-04-21 18:39 52.81902 -8.86352 23223 ft 385 kts
2026-04-21 18:39 52.84595 -8.85736 23264 ft 393 kts
2026-04-21 18:39 52.87279 -8.85136 23271 ft 385 kts
2026-04-21 18:40 52.89912 -8.84539 23270 ft 379 kts
2026-04-21 18:40 52.92509 -8.83967 23281 ft 374 kts
2026-04-21 18:40 52.94243 -8.83575 23272 ft 371 kts
2026-04-21 18:40 52.97608 -8.82821 23267 ft 366 kts
2026-04-21 18:41 53.00123 -8.82249 23260 ft 364 kts
2026-04-21 18:41 53.02624 -8.81691 23260 ft 361 kts
2026-04-21 18:41 53.05105 -8.81128 23259 ft 359 kts
2026-04-21 18:41 53.07574 -8.80571 23260 ft 357 kts
2026-04-21 18:42 53.10028 -8.80016 23259 ft 356 kts
2026-04-21 18:42 53.12479 -8.79465 23268 ft 355 kts
2026-04-21 18:42 53.14922 -8.78905 23274 ft 354 kts
2026-04-21 18:42 53.17360 -8.78359 23270 ft 353 kts
2026-04-21 18:43 53.19788 -8.77801 23270 ft 352 kts
2026-04-21 18:43 53.22216 -8.77255 23274 ft 352 kts
2026-04-21 18:43 53.24637 -8.76698 23277 ft 351 kts
2026-04-21 18:43 53.27057 -8.76151 23274 ft 351 kts
2026-04-21 18:44 53.29472 -8.75598 23276 ft 350 kts
2026-04-21 18:44 53.31888 -8.75045 23271 ft 350 kts
2026-04-21 18:44 53.34297 -8.74495 23280 ft 349 kts
2026-04-21 18:44 53.36707 -8.73945 23281 ft 349 kts
2026-04-21 18:45 53.39112 -8.73391 23276 ft 349 kts
2026-04-21 18:45 53.41512 -8.72841 23278 ft 348 kts
2026-04-21 18:45 53.43908 -8.72291 23300 ft 348 kts
2026-04-21 18:45 53.46305 -8.71739 23300 ft 347 kts
2026-04-21 18:46 53.48698 -8.71190 23294 ft 347 kts
2026-04-21 18:46 53.51089 -8.70636 23299 ft 347 kts
2026-04-21 18:46 53.53480 -8.70087 23304 ft 347 kts
2026-04-21 18:46 53.55868 -8.69532 23304 ft 346 kts
2026-04-21 18:47 53.57448 -8.69172 23302 ft 346 kts
2026-04-21 18:47 53.59832 -8.68613 23300 ft 346 kts
2026-04-21 18:47 53.62217 -8.68067 23300 ft 346 kts
2026-04-21 18:47 53.64602 -8.67506 23306 ft 346 kts
2026-04-21 18:48 53.66984 -8.66959 23308 ft 346 kts
2026-04-21 18:48 53.69364 -8.66401 23310 ft 346 kts
2026-04-21 18:48 53.71748 -8.65851 23310 ft 346 kts
2026-04-21 18:48 53.74131 -8.65291 23313 ft 346 kts
2026-04-21 18:49 53.76512 -8.64739 23313 ft 346 kts
2026-04-21 18:49 53.78895 -8.64179 23312 ft 346 kts
2026-04-21 18:49 53.80474 -8.63810 23313 ft 346 kts
2026-04-21 18:49 53.83658 -8.63064 23318 ft 346 kts
2026-04-21 18:50 53.86043 -8.62508 23231 ft 347 kts
2026-04-21 18:50 53.88494 -8.61938 22679 ft 362 kts
2026-04-21 18:50 53.91026 -8.61457 22203 ft 369 kts 360°
2026-04-21 18:50 53.93613 -8.61317 21743 ft 375 kts 358°
2026-04-21 18:51 53.96236 -8.61077 21445 ft 378 kts
2026-04-21 18:51 53.98864 -8.60695 21026 ft 381 kts
2026-04-21 18:51 54.01528 -8.60335 20520 ft 386 kts
2026-04-21 18:51 54.04223 -8.60035 20018 ft 390 kts
2026-04-21 18:52 54.06899 -8.59729 19500 ft 392 kts
2026-04-21 18:52 54.09628 -8.59389 18984 ft 394 kts
2026-04-21 18:52 54.12364 -8.59042 18441 ft 395 kts
2026-04-21 18:52 54.15136 -8.58710 17914 ft 394 kts
2026-04-21 18:53 54.17827 -8.58385 17403 ft 392 kts
2026-04-21 18:53 54.20544 -8.58053 16885 ft 388 kts
2026-04-21 18:53 54.23192 -8.57730 16378 ft 375 kts
2026-04-21 18:53 54.25756 -8.57416 15894 ft 365 kts
2026-04-21 18:54 54.28260 -8.57110 15415 ft 357 kts
2026-04-21 18:54 54.30711 -8.56804 14951 ft 350 kts
2026-04-21 18:54 54.33126 -8.56513 14493 ft 345 kts
2026-04-21 18:54 54.35506 -8.56216 14027 ft 341 kts
2026-04-21 18:55 54.37099 -8.56019 13711 ft 338 kts
2026-04-21 18:55 54.40180 -8.55645 13118 ft 332 kts
2026-04-21 18:55 54.42473 -8.55355 12679 ft 329 kts
2026-04-21 18:55 54.44715 -8.55085 12256 ft 315 kts
2026-04-21 18:56 54.46853 -8.54825 11849 ft 303 kts
2026-04-21 18:56 54.48932 -8.54559 11456 ft 297 kts
2026-04-21 18:56 54.50978 -8.54309 11069 ft 292 kts
2026-04-21 18:56 54.52995 -8.54053 10687 ft 289 kts
2026-04-21 18:57 54.54994 -8.53806 10307 ft 287 kts
2026-04-21 18:57 54.56977 -8.53566 9866 ft 285 kts
2026-04-21 18:57 54.58984 -8.53303 9196 ft 292 kts
2026-04-21 18:57 54.61000 -8.53060 8770 ft 289 kts
2026-04-21 18:58 54.62989 -8.52814 8388 ft 285 kts
2026-04-21 18:58 54.64953 -8.52566 8003 ft 281 kts
2026-04-21 18:58 54.66890 -8.52321 7652 ft 278 kts
2026-04-21 18:58 54.68817 -8.52091 7282 ft 277 kts
2026-04-21 18:59 54.70725 -8.51843 6920 ft 274 kts
2026-04-21 18:59 54.72620 -8.51605 6543 ft 272 kts
2026-04-21 18:59 54.74501 -8.51369 6181 ft 270 kts 10°
2026-04-21 18:59 54.76371 -8.51127 5830 ft 269 kts 10°
2026-04-21 19:00 54.78225 -8.50854 5474 ft 263 kts 16°
2026-04-21 19:00 54.79911 -8.49861 5129 ft 253 kts 30°
2026-04-21 19:00 54.81553 -8.48837 4789 ft 245 kts 25°
2026-04-21 19:00 54.83111 -8.47885 4475 ft 231 kts 28°
2026-04-21 19:01 54.84581 -8.46912 4174 ft 222 kts 27°
2026-04-21 19:01 54.86004 -8.45995 3883 ft 214 kts 28°
2026-04-21 19:01 54.87382 -8.45100 3606 ft 209 kts 27°
2026-04-21 19:01 54.88724 -8.44242 3334 ft 203 kts 28°
2026-04-21 19:02 54.90029 -8.43399 3068 ft 198 kts 28°
2026-04-21 19:02 54.91302 -8.42581 2979 ft 188 kts 29°
2026-04-21 19:02 54.92509 -8.41799 2729 ft 187 kts 28°
2026-04-21 19:02 54.93733 -8.41005 2442 ft 188 kts 28°
2026-04-21 19:03 54.94956 -8.40217 2156 ft 187 kts 28°
2026-04-21 19:03 54.96174 -8.39429 1868 ft 187 kts 27°
2026-04-21 19:03 54.97392 -8.38645 1584 ft 188 kts 27°
2026-04-21 19:03 54.98559 -8.37907 1281 ft 158 kts 26°
2026-04-21 19:04 54.99473 -8.37323 1076 ft 125 kts 30°
2026-04-21 19:04 55.00207 -8.36856 894 ft 104 kts 29°
2026-04-21 19:04 55.00842 -8.36425 737 ft 98 kts 31°
2026-04-21 19:04 55.01506 -8.35966 630 ft 107 kts 28°
2026-04-21 19:05 55.02226 -8.35508 459 ft 111 kts 28°
2026-04-21 19:05 55.02947 -8.35048 282 ft 110 kts 28°
2026-04-21 19:05 55.03668 -8.34586 88 ft 111 kts 30°
2026-04-21 19:05 55.04347 -8.34141 17 ft 89 kts 20°
2026-04-21 19:06 55.04745 -8.33891 27 ft 36 kts 22°
2026-04-21 19:06 55.04906 -8.33790 25 ft 20 kts 19°
2026-04-21 19:06 55.05023 -8.33744 25 ft 14 kts 352°
2026-04-21 19:06 55.05014 -8.33718 28 ft 9 kts 197°
2026-04-21 19:07 55.04902 -8.33790 26 ft 25 kts 200°
2026-04-21 19:07 55.04690 -8.33927 27 ft 39 kts 200°
2026-04-21 19:07 55.04425 -8.34099 19 ft 41 kts 200°
2026-04-21 19:07 55.04161 -8.34270 20 ft 39 kts 200°
2026-04-21 19:08 55.03953 -8.34404 18 ft 22 kts 200°
2026-04-21 19:08 55.03879 -8.34350 11 ft 14 kts 109°
2026-04-21 19:08 55.03883 -8.34240 11 ft 0 kts 100°
2026-04-21 19:08 55.03880 -8.34230 11 ft 5 kts 128°
2026-04-21 19:09 55.03845 -8.34246 12 ft 3 kts 259°
2026-04-21 19:09 55.03846 -8.34254 12 ft 0 kts 291°